sensor_id;sensor_type;location;lat;lon;timestamp;pressure;altitude;pressure_sealevel;temperature;humidity
61870;BME280;47810;42.264;23.826;2022-10-22T00:02:11;94724.22;;;6.32;62.23
61870;BME280;47810;42.264;23.826;2022-10-22T00:04:40;94719.53;;;6.42;62.01
61870;BME280;47810;42.264;23.826;2022-10-22T00:07:05;94727.16;;;6.48;61.70
61870;BME280;47810;42.264;23.826;2022-10-22T00:09:32;94721.56;;;6.34;61.93
61870;BME280;47810;42.264;23.826;2022-10-22T00:11:58;94723.47;;;6.28;62.07
61870;BME280;47810;42.264;23.826;2022-10-22T00:14:25;94720.41;;;6.42;62.01
61870;BME280;47810;42.264;23.826;2022-10-22T00:16:50;94717.34;;;6.29;61.28
61870;BME280;47810;42.264;23.826;2022-10-22T00:19:19;94720.28;;;6.20;61.76
61870;BME280;47810;42.264;23.826;2022-10-22T00:21:44;94720.72;;;6.08;61.96
61870;BME280;47810;42.264;23.826;2022-10-22T00:24:10;94710.25;;;6.06;62.10
61870;BME280;47810;42.264;23.826;2022-10-22T00:26:36;94710.66;;;6.21;61.57
61870;BME280;47810;42.264;23.826;2022-10-22T00:29:03;94713.13;;;6.00;61.88
61870;BME280;47810;42.264;23.826;2022-10-22T00:31:30;94708.06;;;6.19;61.67
61870;BME280;47810;42.264;23.826;2022-10-22T00:33:56;94704.78;;;6.14;62.03
61870;BME280;47810;42.264;23.826;2022-10-22T00:36:23;94689.28;;;6.06;62.25
61870;BME280;47810;42.264;23.826;2022-10-22T00:38:50;94695.06;;;6.16;62.12
61870;BME280;47810;42.264;23.826;2022-10-22T00:41:15;94681.91;;;6.18;62.51
61870;BME280;47810;42.264;23.826;2022-10-22T00:46:28;94681.09;;;5.91;62.86
61870;BME280;47810;42.264;23.826;2022-10-22T00:48:56;94684.81;;;5.83;63.39
61870;BME280;47810;42.264;23.826;2022-10-22T00:51:23;94679.34;;;5.90;63.07
61870;BME280;47810;42.264;23.826;2022-10-22T00:53:52;94678.38;;;5.94;63.29
61870;BME280;47810;42.264;23.826;2022-10-22T00:56:20;94678.22;;;5.98;63.53
61870;BME280;47810;42.264;23.826;2022-10-22T00:58:48;94686.03;;;6.00;62.50
61870;BME280;47810;42.264;23.826;2022-10-22T01:01:20;94691.06;;;6.06;61.01
61870;BME280;47810;42.264;23.826;2022-10-22T01:03:54;94684.03;;;6.06;63.52
61870;BME280;47810;42.264;23.826;2022-10-22T01:06:23;94686.31;;;5.91;65.50
61870;BME280;47810;42.264;23.826;2022-10-22T01:14:18;94681.88;;;5.94;67.06
61870;BME280;47810;42.264;23.826;2022-10-22T01:24:52;94669.63;;;5.68;64.39
61870;BME280;47810;42.264;23.826;2022-10-22T01:29:47;94661.41;;;5.77;64.28
61870;BME280;47810;42.264;23.826;2022-10-22T01:32:24;94661.81;;;5.92;64.59
61870;BME280;47810;42.264;23.826;2022-10-22T01:35:01;94659.91;;;5.97;63.66
61870;BME280;47810;42.264;23.826;2022-10-22T01:37:30;94668.13;;;5.86;64.38
61870;BME280;47810;42.264;23.826;2022-10-22T01:39:58;94666.19;;;5.93;64.00
61870;BME280;47810;42.264;23.826;2022-10-22T01:42:25;94667.91;;;5.92;61.67
61870;BME280;47810;42.264;23.826;2022-10-22T01:44:50;94662.19;;;6.07;64.59
61870;BME280;47810;42.264;23.826;2022-10-22T01:52:55;94666.47;;;5.57;67.48
61870;BME280;47810;42.264;23.826;2022-10-22T02:01:22;94652.56;;;5.81;66.13
61870;BME280;47810;42.264;23.826;2022-10-22T02:04:00;94646.81;;;5.70;65.41
61870;BME280;47810;42.264;23.826;2022-10-22T02:06:29;94641.59;;;5.70;65.64
61870;BME280;47810;42.264;23.826;2022-10-22T02:08:56;94637.66;;;5.57;63.15
61870;BME280;47810;42.264;23.826;2022-10-22T02:11:23;94631.91;;;5.72;61.16
61870;BME280;47810;42.264;23.826;2022-10-22T02:13:53;94639.88;;;5.69;61.40
61870;BME280;47810;42.264;23.826;2022-10-22T02:16:23;94628.25;;;5.78;61.69
61870;BME280;47810;42.264;23.826;2022-10-22T02:18:51;94638.59;;;5.81;60.88
61870;BME280;47810;42.264;23.826;2022-10-22T02:23:46;94640.84;;;5.92;61.08
61870;BME280;47810;42.264;23.826;2022-10-22T02:26:18;94632.97;;;5.93;61.57
61870;BME280;47810;42.264;23.826;2022-10-22T02:31:20;94634.84;;;5.63;66.19
61870;BME280;47810;42.264;23.826;2022-10-22T02:33:49;94639.78;;;5.72;66.68
61870;BME280;47810;42.264;23.826;2022-10-22T02:36:17;94634.38;;;5.77;66.74
61870;BME280;47810;42.264;23.826;2022-10-22T02:38:43;94628.84;;;5.59;68.62
61870;BME280;47810;42.264;23.826;2022-10-22T02:41:12;94629.72;;;5.60;68.90
61870;BME280;47810;42.264;23.826;2022-10-22T02:43:42;94616.41;;;5.66;67.19
61870;BME280;47810;42.264;23.826;2022-10-22T02:46:09;94612.56;;;5.76;65.80
61870;BME280;47810;42.264;23.826;2022-10-22T02:48:37;94617.63;;;5.56;66.60
61870;BME280;47810;42.264;23.826;2022-10-22T02:51:02;94618.34;;;5.34;67.80
61870;BME280;47810;42.264;23.826;2022-10-22T02:55:57;94611.78;;;5.21;67.71
61870;BME280;47810;42.264;23.826;2022-10-22T02:58:22;94610.75;;;5.27;66.92
61870;BME280;47810;42.264;23.826;2022-10-22T03:00:48;94615.09;;;5.26;67.48
61870;BME280;47810;42.264;23.826;2022-10-22T03:03:14;94625.81;;;5.20;68.05
61870;BME280;47810;42.264;23.826;2022-10-22T03:05:40;94631.97;;;5.18;68.72
61870;BME280;47810;42.264;23.826;2022-10-22T03:08:06;94635.84;;;5.32;69.95
61870;BME280;47810;42.264;23.826;2022-10-22T03:10:31;94643.66;;;5.07;70.32
61870;BME280;47810;42.264;23.826;2022-10-22T03:12:58;94654.25;;;5.03;70.52
61870;BME280;47810;42.264;23.826;2022-10-22T03:15:24;94658.81;;;5.24;70.20
61870;BME280;47810;42.264;23.826;2022-10-22T03:17:52;94658.63;;;5.30;70.00
61870;BME280;47810;42.264;23.826;2022-10-22T03:20:17;94653.69;;;5.21;70.32
61870;BME280;47810;42.264;23.826;2022-10-22T03:25:12;94637.03;;;4.96;71.42
61870;BME280;47810;42.264;23.826;2022-10-22T03:27:40;94640.56;;;4.95;71.58
61870;BME280;47810;42.264;23.826;2022-10-22T03:30:07;94637.69;;;5.02;70.65
61870;BME280;47810;42.264;23.826;2022-10-22T03:32:32;94637.88;;;4.96;70.24
61870;BME280;47810;42.264;23.826;2022-10-22T03:34:58;94645.81;;;4.95;69.78
61870;BME280;47810;42.264;23.826;2022-10-22T03:37:28;94652.34;;;5.08;69.52
61870;BME280;47810;42.264;23.826;2022-10-22T03:42:25;94678.66;;;5.31;68.43
61870;BME280;47810;42.264;23.826;2022-10-22T03:44:50;94674.91;;;5.12;69.02
61870;BME280;47810;42.264;23.826;2022-10-22T03:47:16;94667.63;;;5.48;66.65
61870;BME280;47810;42.264;23.826;2022-10-22T03:49:42;94667.47;;;5.26;67.92
61870;BME280;47810;42.264;23.826;2022-10-22T03:52:12;94669.31;;;5.23;67.25
61870;BME280;47810;42.264;23.826;2022-10-22T03:54:39;94666.13;;;5.13;68.47
61870;BME280;47810;42.264;23.826;2022-10-22T03:57:05;94663.31;;;5.21;67.91
61870;BME280;47810;42.264;23.826;2022-10-22T03:59:35;94652.06;;;5.17;67.33
61870;BME280;47810;42.264;23.826;2022-10-22T04:02:01;94648.53;;;5.18;67.50
61870;BME280;47810;42.264;23.826;2022-10-22T04:04:27;94634.91;;;5.07;67.82
61870;BME280;47810;42.264;23.826;2022-10-22T04:06:54;94635.56;;;5.15;67.84
61870;BME280;47810;42.264;23.826;2022-10-22T04:09:20;94625.84;;;5.19;67.43
61870;BME280;47810;42.264;23.826;2022-10-22T04:11:45;94618.72;;;5.22;66.69
61870;BME280;47810;42.264;23.826;2022-10-22T04:14:11;94624.06;;;5.19;66.57
61870;BME280;47810;42.264;23.826;2022-10-22T04:16:40;94625.06;;;5.15;67.12
61870;BME280;47810;42.264;23.826;2022-10-22T04:19:07;94616.94;;;5.24;65.87
61870;BME280;47810;42.264;23.826;2022-10-22T04:21:33;94616.13;;;5.22;65.63
61870;BME280;47810;42.264;23.826;2022-10-22T04:23:59;94613.50;;;5.22;65.86
61870;BME280;47810;42.264;23.826;2022-10-22T04:26:25;94627.50;;;5.21;65.95
61870;BME280;47810;42.264;23.826;2022-10-22T04:28:52;94628.19;;;5.00;67.27
61870;BME280;47810;42.264;23.826;2022-10-22T04:31:19;94622.94;;;5.00;67.83
61870;BME280;47810;42.264;23.826;2022-10-22T04:33:45;94625.84;;;4.90;69.14
61870;BME280;47810;42.264;23.826;2022-10-22T04:36:12;94605.19;;;4.81;70.24
61870;BME280;47810;42.264;23.826;2022-10-22T04:38:38;94603.72;;;5.01;69.81
61870;BME280;47810;42.264;23.826;2022-10-22T04:41:11;94611.63;;;4.71;70.42
61870;BME280;47810;42.264;23.826;2022-10-22T04:43:39;94609.47;;;4.56;71.26
61870;BME280;47810;42.264;23.826;2022-10-22T04:46:06;94616.50;;;4.54;71.67
61870;BME280;47810;42.264;23.826;2022-10-22T04:48:38;94612.63;;;4.67;71.73
61870;BME280;47810;42.264;23.826;2022-10-22T04:51:04;94614.03;;;4.77;70.79
61870;BME280;47810;42.264;23.826;2022-10-22T04:53:31;94627.50;;;4.65;70.98
61870;BME280;47810;42.264;23.826;2022-10-22T04:56:11;94627.31;;;4.99;69.91
61870;BME280;47810;42.264;23.826;2022-10-22T04:58:38;94616.00;;;4.99;69.60
61870;BME280;47810;42.264;23.826;2022-10-22T05:03:35;94617.50;;;5.06;68.95
61870;BME280;47810;42.264;23.826;2022-10-22T05:06:01;94607.34;;;4.97;69.44
61870;BME280;47810;42.264;23.826;2022-10-22T05:08:33;94599.72;;;5.17;68.88
61870;BME280;47810;42.264;23.826;2022-10-22T05:10:58;94592.75;;;5.16;67.40
61870;BME280;47810;42.264;23.826;2022-10-22T05:13:24;94588.28;;;5.20;67.09
61870;BME280;47810;42.264;23.826;2022-10-22T05:15:50;94588.41;;;5.42;66.97
61870;BME280;47810;42.264;23.826;2022-10-22T05:18:16;94590.03;;;5.46;67.25
61870;BME280;47810;42.264;23.826;2022-10-22T05:20:42;94584.38;;;5.58;67.48
61870;BME280;47810;42.264;23.826;2022-10-22T05:23:07;94598.72;;;5.73;66.97
61870;BME280;47810;42.264;23.826;2022-10-22T05:25:39;94598.59;;;5.76;66.68
61870;BME280;47810;42.264;23.826;2022-10-22T05:28:06;94604.16;;;5.92;67.49
61870;BME280;47810;42.264;23.826;2022-10-22T05:30:31;94610.19;;;5.95;67.72
61870;BME280;47810;42.264;23.826;2022-10-22T05:32:57;94603.03;;;6.00;67.51
61870;BME280;47810;42.264;23.826;2022-10-22T05:35:22;94612.09;;;6.15;67.37
61870;BME280;47810;42.264;23.826;2022-10-22T05:37:49;94603.91;;;5.99;67.06
61870;BME280;47810;42.264;23.826;2022-10-22T05:40:15;94602.13;;;6.25;66.41
61870;BME280;47810;42.264;23.826;2022-10-22T05:42:41;94605.16;;;6.38;66.91
61870;BME280;47810;42.264;23.826;2022-10-22T05:45:06;94597.00;;;6.45;66.75
61870;BME280;47810;42.264;23.826;2022-10-22T05:47:33;94589.88;;;6.49;66.75
61870;BME280;47810;42.264;23.826;2022-10-22T05:49:58;94591.88;;;6.64;66.45
61870;BME280;47810;42.264;23.826;2022-10-22T05:52:24;94588.81;;;6.76;67.16
61870;BME280;47810;42.264;23.826;2022-10-22T05:54:50;94583.44;;;6.80;67.56
61870;BME280;47810;42.264;23.826;2022-10-22T05:57:15;94588.22;;;6.92;68.02
61870;BME280;47810;42.264;23.826;2022-10-22T05:59:41;94602.50;;;6.85;68.43
61870;BME280;47810;42.264;23.826;2022-10-22T06:02:09;94602.50;;;6.85;69.34
61870;BME280;47810;42.264;23.826;2022-10-22T06:04:35;94614.81;;;6.83;70.15
61870;BME280;47810;42.264;23.826;2022-10-22T06:07:01;94629.84;;;7.01;70.55
61870;BME280;47810;42.264;23.826;2022-10-22T06:09:28;94642.91;;;7.03;70.88
61870;BME280;47810;42.264;23.826;2022-10-22T06:11:55;94654.19;;;6.83;72.65
61870;BME280;47810;42.264;23.826;2022-10-22T06:14:21;94656.16;;;6.78;73.97
61870;BME280;47810;42.264;23.826;2022-10-22T06:16:48;94661.00;;;7.10;73.64
61870;BME280;47810;42.264;23.826;2022-10-22T06:19:16;94646.56;;;6.98;74.41
61870;BME280;47810;42.264;23.826;2022-10-22T06:21:43;94654.13;;;7.06;73.02
61870;BME280;47810;42.264;23.826;2022-10-22T06:24:09;94650.03;;;6.99;73.28
61870;BME280;47810;42.264;23.826;2022-10-22T06:26:35;94640.72;;;7.14;73.15
61870;BME280;47810;42.264;23.826;2022-10-22T06:29:01;94634.63;;;7.35;71.54
61870;BME280;47810;42.264;23.826;2022-10-22T06:31:27;94636.22;;;7.17;71.70
61870;BME280;47810;42.264;23.826;2022-10-22T06:33:56;94631.06;;;7.14;71.75
61870;BME280;47810;42.264;23.826;2022-10-22T06:36:22;94627.72;;;7.33;71.17
61870;BME280;47810;42.264;23.826;2022-10-22T06:38:50;94625.38;;;7.47;70.80
61870;BME280;47810;42.264;23.826;2022-10-22T06:41:16;94623.44;;;7.73;69.90
61870;BME280;47810;42.264;23.826;2022-10-22T06:43:41;94620.97;;;7.90;68.39
61870;BME280;47810;42.264;23.826;2022-10-22T06:46:09;94624.91;;;8.00;67.96
61870;BME280;47810;42.264;23.826;2022-10-22T06:48:37;94615.25;;;8.42;66.91
61870;BME280;47810;42.264;23.826;2022-10-22T06:51:08;94602.09;;;8.60;67.53
61870;BME280;47810;42.264;23.826;2022-10-22T06:53:34;94600.94;;;8.47;67.81
61870;BME280;47810;42.264;23.826;2022-10-22T06:56:07;94614.81;;;8.30;69.87
61870;BME280;47810;42.264;23.826;2022-10-22T06:58:33;94629.09;;;8.25;70.39
61870;BME280;47810;42.264;23.826;2022-10-22T07:01:05;94620.56;;;8.40;70.29
61870;BME280;47810;42.264;23.826;2022-10-22T07:03:32;94620.66;;;8.37;70.57
61870;BME280;47810;42.264;23.826;2022-10-22T07:05:58;94617.16;;;8.38;70.54
61870;BME280;47810;42.264;23.826;2022-10-22T07:08:24;94627.91;;;8.32;70.97
61870;BME280;47810;42.264;23.826;2022-10-22T07:10:49;94642.69;;;8.34;71.24
61870;BME280;47810;42.264;23.826;2022-10-22T07:13:15;94643.56;;;8.35;71.89
61870;BME280;47810;42.264;23.826;2022-10-22T07:15:41;94637.75;;;8.47;71.25
61870;BME280;47810;42.264;23.826;2022-10-22T07:18:08;94655.72;;;8.58;70.70
61870;BME280;47810;42.264;23.826;2022-10-22T07:20:33;94649.22;;;8.46;70.83
61870;BME280;47810;42.264;23.826;2022-10-22T07:22:59;94643.91;;;8.48;70.93
61870;BME280;47810;42.264;23.826;2022-10-22T07:25:24;94662.13;;;8.52;70.67
61870;BME280;47810;42.264;23.826;2022-10-22T07:30:18;94658.41;;;8.56;70.77
61870;BME280;47810;42.264;23.826;2022-10-22T07:32:44;94650.63;;;8.74;70.18
61870;BME280;47810;42.264;23.826;2022-10-22T07:35:10;94641.25;;;9.06;69.64
61870;BME280;47810;42.264;23.826;2022-10-22T07:37:36;94647.50;;;9.03;69.93
61870;BME280;47810;42.264;23.826;2022-10-22T07:40:02;94638.50;;;9.26;69.41
61870;BME280;47810;42.264;23.826;2022-10-22T07:42:28;94634.28;;;9.41;68.80
61870;BME280;47810;42.264;23.826;2022-10-22T07:44:54;94637.16;;;9.73;68.25
61870;BME280;47810;42.264;23.826;2022-10-22T07:47:20;94641.94;;;9.82;67.46
61870;BME280;47810;42.264;23.826;2022-10-22T07:49:48;94631.22;;;9.85;66.79
61870;BME280;47810;42.264;23.826;2022-10-22T07:52:14;94629.38;;;10.22;63.82
61870;BME280;47810;42.264;23.826;2022-10-22T07:54:40;94628.63;;;10.37;62.49
61870;BME280;47810;42.264;23.826;2022-10-22T07:57:06;94628.00;;;10.65;61.46
61870;BME280;47810;42.264;23.826;2022-10-22T07:59:35;94629.78;;;10.98;58.52
61870;BME280;47810;42.264;23.826;2022-10-22T08:02:01;94628.06;;;11.29;58.66
61870;BME280;47810;42.264;23.826;2022-10-22T08:04:26;94620.53;;;11.84;55.85
61870;BME280;47810;42.264;23.826;2022-10-22T08:06:53;94622.34;;;12.14;56.23
61870;BME280;47810;42.264;23.826;2022-10-22T08:09:18;94622.88;;;12.49;53.54
61870;BME280;47810;42.264;23.826;2022-10-22T08:11:46;94615.47;;;12.54;53.11
61870;BME280;47810;42.264;23.826;2022-10-22T08:14:12;94611.91;;;12.70;52.50
61870;BME280;47810;42.264;23.826;2022-10-22T08:16:37;94613.00;;;13.09;51.40
61870;BME280;47810;42.264;23.826;2022-10-22T08:19:03;94611.97;;;13.40;52.15
61870;BME280;47810;42.264;23.826;2022-10-22T08:21:28;94604.75;;;13.69;50.73
61870;BME280;47810;42.264;23.826;2022-10-22T08:23:56;94604.25;;;14.16;49.71
61870;BME280;47810;42.264;23.826;2022-10-22T08:26:21;94604.31;;;14.42;47.81
61870;BME280;47810;42.264;23.826;2022-10-22T08:28:48;94607.25;;;14.50;48.04
61870;BME280;47810;42.264;23.826;2022-10-22T08:31:17;94608.34;;;14.60;47.00
61870;BME280;47810;42.264;23.826;2022-10-22T08:33:43;94600.50;;;14.72;48.08
61870;BME280;47810;42.264;23.826;2022-10-22T08:36:09;94594.59;;;15.18;47.07
61870;BME280;47810;42.264;23.826;2022-10-22T08:38:35;94588.00;;;15.47;43.97
61870;BME280;47810;42.264;23.826;2022-10-22T08:41:34;94580.72;;;15.38;43.94
61870;BME280;47810;42.264;23.826;2022-10-22T08:43:57;94568.81;;;15.68;45.72
61870;BME280;47810;42.264;23.826;2022-10-22T08:49:21;94567.38;;;16.45;43.36
61870;BME280;47810;42.264;23.826;2022-10-22T08:51:48;94567.25;;;16.82;43.53
61870;BME280;47810;42.264;23.826;2022-10-22T08:56:46;94566.47;;;17.36;40.99
61870;BME280;47810;42.264;23.826;2022-10-22T08:59:19;94567.81;;;17.42;39.82
61870;BME280;47810;42.264;23.826;2022-10-22T09:01:49;94573.03;;;17.43;40.80
61870;BME280;47810;42.264;23.826;2022-10-22T09:06:53;94563.34;;;18.18;41.38
61870;BME280;47810;42.264;23.826;2022-10-22T09:09:20;94560.25;;;18.76;38.70
61870;BME280;47810;42.264;23.826;2022-10-22T09:11:51;94555.97;;;18.94;37.57
61870;BME280;47810;42.264;23.826;2022-10-22T09:14:20;94550.72;;;18.62;38.69
61870;BME280;47810;42.264;23.826;2022-10-22T09:27:35;94543.50;;;19.54;36.50
61870;BME280;47810;42.264;23.826;2022-10-22T09:30:03;94534.47;;;19.46;35.43
61870;BME280;47810;42.264;23.826;2022-10-22T09:32:28;94537.81;;;19.98;35.98
61870;BME280;47810;42.264;23.826;2022-10-22T09:34:58;94538.53;;;20.19;35.40
61870;BME280;47810;42.264;23.826;2022-10-22T09:37:24;94538.91;;;20.44;33.59
61870;BME280;47810;42.264;23.826;2022-10-22T09:39:53;94533.72;;;20.33;33.09
61870;BME280;47810;42.264;23.826;2022-10-22T09:42:19;94527.91;;;20.37;33.09
61870;BME280;47810;42.264;23.826;2022-10-22T09:44:57;94530.47;;;20.39;33.44
61870;BME280;47810;42.264;23.826;2022-10-22T09:47:36;94528.31;;;20.72;35.05
61870;BME280;47810;42.264;23.826;2022-10-22T09:50:10;94524.44;;;20.93;34.16
61870;BME280;47810;42.264;23.826;2022-10-22T09:52:43;94513.53;;;20.95;33.73
61870;BME280;47810;42.264;23.826;2022-10-22T09:55:13;94518.19;;;21.30;34.27
61870;BME280;47810;42.264;23.826;2022-10-22T09:57:39;94510.13;;;21.40;33.11
61870;BME280;47810;42.264;23.826;2022-10-22T10:00:07;94510.41;;;21.65;32.47
61870;BME280;47810;42.264;23.826;2022-10-22T10:02:33;94511.41;;;21.81;33.28
61870;BME280;47810;42.264;23.826;2022-10-22T10:05:00;94506.28;;;22.24;33.00
61870;BME280;47810;42.264;23.826;2022-10-22T10:07:30;94494.38;;;22.26;31.15
61870;BME280;47810;42.264;23.826;2022-10-22T10:10:01;94494.47;;;22.61;31.65
61870;BME280;47810;42.264;23.826;2022-10-22T10:12:32;94484.28;;;22.98;29.41
61870;BME280;47810;42.264;23.826;2022-10-22T10:25:25;94472.63;;;23.24;29.90
61870;BME280;47810;42.264;23.826;2022-10-22T10:30:41;94450.28;;;23.40;29.85
61870;BME280;47810;42.264;23.826;2022-10-22T10:36:01;94441.00;;;23.93;28.51
61870;BME280;47810;42.264;23.826;2022-10-22T10:48:49;94413.84;;;24.35;26.16
61870;BME280;47810;42.264;23.826;2022-10-22T10:56:40;94404.53;;;24.71;26.41
61870;BME280;47810;42.264;23.826;2022-10-22T10:59:22;94390.91;;;25.03;26.50
61870;BME280;47810;42.264;23.826;2022-10-22T11:04:46;94402.63;;;24.87;26.58
61870;BME280;47810;42.264;23.826;2022-10-22T11:07:22;94408.34;;;25.01;27.73
61870;BME280;47810;42.264;23.826;2022-10-22T11:09:58;94411.69;;;25.03;27.24
61870;BME280;47810;42.264;23.826;2022-10-22T11:12:28;94401.66;;;25.20;26.89
61870;BME280;47810;42.264;23.826;2022-10-22T11:14:58;94404.91;;;25.23;26.51
61870;BME280;47810;42.264;23.826;2022-10-22T11:17:32;94401.81;;;25.26;27.05
61870;BME280;47810;42.264;23.826;2022-10-22T11:20:02;94401.63;;;25.36;27.13
61870;BME280;47810;42.264;23.826;2022-10-22T11:23:12;94400.19;;;25.48;26.90
61870;BME280;47810;42.264;23.826;2022-10-22T11:25:20;94391.53;;;25.53;26.72
61870;BME280;47810;42.264;23.826;2022-10-22T11:27:58;94391.84;;;25.58;26.72
61870;BME280;47810;42.264;23.826;2022-10-22T11:30:27;94388.09;;;25.90;26.39
61870;BME280;47810;42.264;23.826;2022-10-22T11:32:59;94381.25;;;25.71;25.73
61870;BME280;47810;42.264;23.826;2022-10-22T11:35:27;94371.69;;;25.92;26.42
61870;BME280;47810;42.264;23.826;2022-10-22T11:37:55;94371.34;;;25.95;25.25
61870;BME280;47810;42.264;23.826;2022-10-22T11:40:29;94362.09;;;25.58;26.00
61870;BME280;47810;42.264;23.826;2022-10-22T11:43:02;94362.47;;;25.78;24.52
61870;BME280;47810;42.264;23.826;2022-10-22T11:45:36;94358.09;;;26.00;25.16
61870;BME280;47810;42.264;23.826;2022-10-22T11:50:47;94350.22;;;26.13;25.31
61870;BME280;47810;42.264;23.826;2022-10-22T11:55:43;94341.47;;;26.41;23.59
61870;BME280;47810;42.264;23.826;2022-10-22T11:58:27;94333.22;;;26.19;24.73
61870;BME280;47810;42.264;23.826;2022-10-22T12:00:55;94333.72;;;26.00;25.96
61870;BME280;47810;42.264;23.826;2022-10-22T12:03:37;94340.53;;;25.19;27.32
61870;BME280;47810;42.264;23.826;2022-10-22T12:19:04;94336.59;;;24.51;29.38
61870;BME280;47810;42.264;23.826;2022-10-22T12:21:32;94330.28;;;24.67;28.28
61870;BME280;47810;42.264;23.826;2022-10-22T12:23:59;94333.59;;;24.85;28.25
61870;BME280;47810;42.264;23.826;2022-10-22T12:26:27;94323.06;;;24.98;27.08
61870;BME280;47810;42.264;23.826;2022-10-22T12:28:57;94322.16;;;25.14;27.59
61870;BME280;47810;42.264;23.826;2022-10-22T12:31:23;94314.66;;;25.24;25.97
61870;BME280;47810;42.264;23.826;2022-10-22T12:33:54;94310.53;;;25.37;25.39
61870;BME280;47810;42.264;23.826;2022-10-22T12:36:20;94309.19;;;25.32;26.89
61870;BME280;47810;42.264;23.826;2022-10-22T12:38:46;94313.13;;;25.30;27.58
61870;BME280;47810;42.264;23.826;2022-10-22T12:41:11;94308.78;;;25.67;27.29
61870;BME280;47810;42.264;23.826;2022-10-22T12:43:37;94312.81;;;25.48;27.64
61870;BME280;47810;42.264;23.826;2022-10-22T12:46:15;94312.00;;;25.16;27.84
61870;BME280;47810;42.264;23.826;2022-10-22T12:48:43;94310.84;;;25.10;28.63
61870;BME280;47810;42.264;23.826;2022-10-22T12:51:18;94307.97;;;25.04;28.49
61870;BME280;47810;42.264;23.826;2022-10-22T12:53:48;94311.69;;;25.11;27.98
61870;BME280;47810;42.264;23.826;2022-10-22T12:56:27;94306.63;;;25.08;28.51
61870;BME280;47810;42.264;23.826;2022-10-22T12:58:59;94312.41;;;24.66;29.79
61870;BME280;47810;42.264;23.826;2022-10-22T13:01:27;94325.44;;;24.37;28.83
61870;BME280;47810;42.264;23.826;2022-10-22T13:06:42;94302.91;;;23.65;30.87
61870;BME280;47810;42.264;23.826;2022-10-22T13:09:13;94300.75;;;23.60;31.33
61870;BME280;47810;42.264;23.826;2022-10-22T13:11:47;94305.28;;;23.60;31.57
61870;BME280;47810;42.264;23.826;2022-10-22T13:14:20;94308.69;;;23.70;30.72
61870;BME280;47810;42.264;23.826;2022-10-22T13:24:53;94305.56;;;23.24;33.66
61870;BME280;47810;42.264;23.826;2022-10-22T13:27:22;94310.31;;;23.22;32.26
61870;BME280;47810;42.264;23.826;2022-10-22T13:29:48;94304.53;;;23.00;33.36
61870;BME280;47810;42.264;23.826;2022-10-22T13:32:33;94312.59;;;23.00;33.00
61870;BME280;47810;42.264;23.826;2022-10-22T13:35:01;94329.38;;;22.86;33.58
61870;BME280;47810;42.264;23.826;2022-10-22T13:37:30;94318.09;;;22.83;32.99
61870;BME280;47810;42.264;23.826;2022-10-22T13:39:57;94321.25;;;22.78;33.59
61870;BME280;47810;42.264;23.826;2022-10-22T13:42:23;94312.50;;;22.76;33.58
61870;BME280;47810;42.264;23.826;2022-10-22T13:44:49;94302.72;;;22.67;33.82
61870;BME280;47810;42.264;23.826;2022-10-22T13:47:25;94315.94;;;22.52;34.75
61870;BME280;47810;42.264;23.826;2022-10-22T13:49:54;94307.69;;;22.53;34.37
61870;BME280;47810;42.264;23.826;2022-10-22T13:54:59;94305.03;;;22.19;34.90
61870;BME280;47810;42.264;23.826;2022-10-22T13:57:24;94298.81;;;22.19;34.38
61870;BME280;47810;42.264;23.826;2022-10-22T13:59:50;94292.84;;;21.89;36.06
61870;BME280;47810;42.264;23.826;2022-10-22T14:02:16;94288.81;;;21.85;35.51
61870;BME280;47810;42.264;23.826;2022-10-22T14:04:44;94291.47;;;21.77;35.75
61870;BME280;47810;42.264;23.826;2022-10-22T14:07:14;94297.38;;;21.62;35.93
61870;BME280;47810;42.264;23.826;2022-10-22T14:09:43;94305.19;;;21.48;37.11
61870;BME280;47810;42.264;23.826;2022-10-22T14:12:14;94303.56;;;21.37;36.27
61870;BME280;47810;42.264;23.826;2022-10-22T14:14:40;94301.16;;;21.16;37.23
61870;BME280;47810;42.264;23.826;2022-10-22T14:17:08;94298.16;;;21.01;38.09
61870;BME280;47810;42.264;23.826;2022-10-22T14:19:40;94294.00;;;20.89;38.15
61870;BME280;47810;42.264;23.826;2022-10-22T14:22:09;94295.22;;;20.77;38.55
61870;BME280;47810;42.264;23.826;2022-10-22T14:24:40;94291.69;;;20.48;38.13
61870;BME280;47810;42.264;23.826;2022-10-22T14:29:34;94303.31;;;20.39;38.89
61870;BME280;47810;42.264;23.826;2022-10-22T14:31:59;94310.19;;;20.14;39.67
61870;BME280;47810;42.264;23.826;2022-10-22T14:34:26;94304.13;;;19.75;40.03
61870;BME280;47810;42.264;23.826;2022-10-22T14:36:51;94302.44;;;19.64;40.29
61870;BME280;47810;42.264;23.826;2022-10-22T14:39:18;94310.31;;;19.56;40.68
61870;BME280;47810;42.264;23.826;2022-10-22T14:41:46;94306.69;;;19.18;39.73
61870;BME280;47810;42.264;23.826;2022-10-22T14:44:12;94310.06;;;19.01;40.85
61870;BME280;47810;42.264;23.826;2022-10-22T14:49:08;94302.16;;;18.90;41.95
61870;BME280;47810;42.264;23.826;2022-10-22T14:51:33;94313.84;;;18.38;43.10
61870;BME280;47810;42.264;23.826;2022-10-22T14:53:59;94307.06;;;18.25;43.60
61870;BME280;47810;42.264;23.826;2022-10-22T14:56:24;94307.63;;;17.98;43.96
61870;BME280;47810;42.264;23.826;2022-10-22T14:58:52;94317.78;;;18.04;44.85
61870;BME280;47810;42.264;23.826;2022-10-22T15:01:18;94325.91;;;17.92;44.12
61870;BME280;47810;42.264;23.826;2022-10-22T15:03:43;94328.66;;;17.60;44.97
61870;BME280;47810;42.264;23.826;2022-10-22T15:06:10;94325.13;;;17.39;45.30
61870;BME280;47810;42.264;23.826;2022-10-22T15:08:36;94323.50;;;17.48;45.52
61870;BME280;47810;42.264;23.826;2022-10-22T15:11:10;94320.81;;;17.27;45.67
61870;BME280;47810;42.264;23.826;2022-10-22T15:13:36;94324.16;;;17.19;45.71
61870;BME280;47810;42.264;23.826;2022-10-22T15:16:06;94322.16;;;17.00;46.29
61870;BME280;47810;42.264;23.826;2022-10-22T15:18:32;94314.84;;;16.81;46.59